sensor_id;sensor_type;location;lat;lon;timestamp;P1;durP1;ratioP1;P2;durP2;ratioP2
38499;SDS011;24269;51.894;4.622;2022-10-31T00:00:57;4.15;;;1.75;;
38499;SDS011;24269;51.894;4.622;2022-10-31T00:03:24;3.75;;;1.75;;
38499;SDS011;24269;51.894;4.622;2022-10-31T00:05:51;5.03;;;1.65;;
38499;SDS011;24269;51.894;4.622;2022-10-31T00:08:17;3.47;;;1.40;;
38499;SDS011;24269;51.894;4.622;2022-10-31T00:10:44;6.22;;;2.03;;
38499;SDS011;24269;51.894;4.622;2022-10-31T00:13:10;3.70;;;1.50;;
38499;SDS011;24269;51.894;4.622;2022-10-31T00:15:37;5.43;;;2.00;;
38499;SDS011;24269;51.894;4.622;2022-10-31T00:18:04;5.97;;;2.00;;
38499;SDS011;24269;51.894;4.622;2022-10-31T00:20:30;5.13;;;1.90;;
38499;SDS011;24269;51.894;4.622;2022-10-31T00:22:59;5.43;;;2.40;;
38499;SDS011;24269;51.894;4.622;2022-10-31T00:25:26;5.15;;;1.95;;
38499;SDS011;24269;51.894;4.622;2022-10-31T00:27:53;5.75;;;2.20;;
38499;SDS011;24269;51.894;4.622;2022-10-31T00:30:19;4.40;;;2.22;;
38499;SDS011;24269;51.894;4.622;2022-10-31T00:32:44;7.05;;;2.47;;
38499;SDS011;24269;51.894;4.622;2022-10-31T00:35:10;7.82;;;2.33;;
38499;SDS011;24269;51.894;4.622;2022-10-31T00:37:35;5.05;;;2.13;;
38499;SDS011;24269;51.894;4.622;2022-10-31T00:40:01;6.15;;;2.45;;
38499;SDS011;24269;51.894;4.622;2022-10-31T00:42:27;5.25;;;2.13;;
38499;SDS011;24269;51.894;4.622;2022-10-31T00:44:52;5.20;;;2.47;;
38499;SDS011;24269;51.894;4.622;2022-10-31T00:47:18;5.78;;;2.50;;
38499;SDS011;24269;51.894;4.622;2022-10-31T00:49:43;5.60;;;2.85;;
38499;SDS011;24269;51.894;4.622;2022-10-31T00:52:09;6.88;;;2.95;;
38499;SDS011;24269;51.894;4.622;2022-10-31T00:54:34;6.22;;;2.83;;
38499;SDS011;24269;51.894;4.622;2022-10-31T00:57:00;6.20;;;3.05;;
38499;SDS011;24269;51.894;4.622;2022-10-31T00:59:26;7.00;;;3.15;;
38499;SDS011;24269;51.894;4.622;2022-10-31T01:01:51;6.38;;;3.15;;
38499;SDS011;24269;51.894;4.622;2022-10-31T01:04:17;5.47;;;2.90;;
38499;SDS011;24269;51.894;4.622;2022-10-31T01:06:42;6.57;;;3.10;;
38499;SDS011;24269;51.894;4.622;2022-10-31T01:09:08;7.82;;;3.53;;
38499;SDS011;24269;51.894;4.622;2022-10-31T01:11:33;7.07;;;3.38;;
38499;SDS011;24269;51.894;4.622;2022-10-31T01:13:59;8.63;;;3.80;;
38499;SDS011;24269;51.894;4.622;2022-10-31T01:16:25;8.27;;;3.50;;
38499;SDS011;24269;51.894;4.622;2022-10-31T01:18:52;6.40;;;3.78;;
38499;SDS011;24269;51.894;4.622;2022-10-31T01:21:19;6.88;;;3.10;;
38499;SDS011;24269;51.894;4.622;2022-10-31T01:23:46;6.30;;;2.90;;
38499;SDS011;24269;51.894;4.622;2022-10-31T01:26:13;6.53;;;3.38;;
38499;SDS011;24269;51.894;4.622;2022-10-31T01:28:51;7.07;;;3.45;;
38499;SDS011;24269;51.894;4.622;2022-10-31T01:31:20;6.82;;;3.10;;
38499;SDS011;24269;51.894;4.622;2022-10-31T01:33:47;7.05;;;3.30;;
38499;SDS011;24269;51.894;4.622;2022-10-31T01:36:14;9.20;;;4.10;;
38499;SDS011;24269;51.894;4.622;2022-10-31T01:38:43;7.47;;;3.67;;
38499;SDS011;24269;51.894;4.622;2022-10-31T01:41:09;7.85;;;3.50;;
38499;SDS011;24269;51.894;4.622;2022-10-31T01:46:19;7.18;;;3.80;;
38499;SDS011;24269;51.894;4.622;2022-10-31T01:48:49;7.95;;;4.32;;
38499;SDS011;24269;51.894;4.622;2022-10-31T01:51:16;10.13;;;4.38;;
38499;SDS011;24269;51.894;4.622;2022-10-31T01:53:44;9.38;;;4.85;;
38499;SDS011;24269;51.894;4.622;2022-10-31T01:56:11;8.75;;;4.38;;
38499;SDS011;24269;51.894;4.622;2022-10-31T01:58:39;9.15;;;4.78;;
38499;SDS011;24269;51.894;4.622;2022-10-31T02:01:05;10.57;;;4.30;;
38499;SDS011;24269;51.894;4.622;2022-10-31T02:03:30;8.55;;;4.72;;
38499;SDS011;24269;51.894;4.622;2022-10-31T02:05:57;9.45;;;4.85;;
38499;SDS011;24269;51.894;4.622;2022-10-31T02:08:26;10.15;;;5.32;;
38499;SDS011;24269;51.894;4.622;2022-10-31T02:10:54;10.75;;;5.47;;
38499;SDS011;24269;51.894;4.622;2022-10-31T02:13:21;9.15;;;4.65;;
38499;SDS011;24269;51.894;4.622;2022-10-31T02:16:08;10.10;;;5.38;;
38499;SDS011;24269;51.894;4.622;2022-10-31T02:18:34;8.35;;;4.75;;
38499;SDS011;24269;51.894;4.622;2022-10-31T02:31:46;9.98;;;5.30;;
38499;SDS011;24269;51.894;4.622;2022-10-31T02:40:14;11.90;;;5.43;;
38499;SDS011;24269;51.894;4.622;2022-10-31T02:47:46;9.88;;;5.32;;
38499;SDS011;24269;51.894;4.622;2022-10-31T02:50:20;10.52;;;5.55;;
38499;SDS011;24269;51.894;4.622;2022-10-31T02:52:51;10.55;;;5.65;;
38499;SDS011;24269;51.894;4.622;2022-10-31T02:58:11;9.48;;;5.60;;
38499;SDS011;24269;51.894;4.622;2022-10-31T03:00:42;12.60;;;6.05;;
38499;SDS011;24269;51.894;4.622;2022-10-31T03:06:35;12.82;;;6.20;;
38499;SDS011;24269;51.894;4.622;2022-10-31T03:09:21;10.18;;;5.82;;
38499;SDS011;24269;51.894;4.622;2022-10-31T03:14:41;12.63;;;5.97;;
38499;SDS011;24269;51.894;4.622;2022-10-31T03:17:17;9.57;;;4.95;;
38499;SDS011;24269;51.894;4.622;2022-10-31T03:19:49;9.55;;;4.60;;
38499;SDS011;24269;51.894;4.622;2022-10-31T03:22:20;9.85;;;5.53;;
38499;SDS011;24269;51.894;4.622;2022-10-31T03:24:48;12.65;;;6.20;;
38499;SDS011;24269;51.894;4.622;2022-10-31T03:27:16;10.40;;;5.07;;
38499;SDS011;24269;51.894;4.622;2022-10-31T03:29:46;10.90;;;4.95;;
38499;SDS011;24269;51.894;4.622;2022-10-31T03:32:18;11.38;;;5.45;;
38499;SDS011;24269;51.894;4.622;2022-10-31T03:34:47;11.05;;;5.22;;
38499;SDS011;24269;51.894;4.622;2022-10-31T03:37:16;10.27;;;5.40;;
38499;SDS011;24269;51.894;4.622;2022-10-31T03:39:44;11.27;;;5.05;;
38499;SDS011;24269;51.894;4.622;2022-10-31T03:42:14;11.50;;;4.75;;
38499;SDS011;24269;51.894;4.622;2022-10-31T03:44:44;10.90;;;5.60;;
38499;SDS011;24269;51.894;4.622;2022-10-31T03:47:15;10.27;;;4.90;;
38499;SDS011;24269;51.894;4.622;2022-10-31T03:49:41;11.13;;;4.60;;
38499;SDS011;24269;51.894;4.622;2022-10-31T03:52:23;9.52;;;4.78;;
38499;SDS011;24269;51.894;4.622;2022-10-31T03:54:59;9.88;;;4.50;;
38499;SDS011;24269;51.894;4.622;2022-10-31T03:57:41;8.80;;;4.72;;
38499;SDS011;24269;51.894;4.622;2022-10-31T04:00:13;10.23;;;4.47;;
38499;SDS011;24269;51.894;4.622;2022-10-31T04:02:42;11.40;;;4.95;;
38499;SDS011;24269;51.894;4.622;2022-10-31T04:05:21;11.00;;;5.45;;
38499;SDS011;24269;51.894;4.622;2022-10-31T04:07:49;10.63;;;4.75;;
38499;SDS011;24269;51.894;4.622;2022-10-31T04:10:19;10.40;;;4.88;;
38499;SDS011;24269;51.894;4.622;2022-10-31T04:12:48;9.82;;;4.82;;
38499;SDS011;24269;51.894;4.622;2022-10-31T04:15:19;7.22;;;4.35;;
38499;SDS011;24269;51.894;4.622;2022-10-31T04:17:47;9.57;;;5.38;;
38499;SDS011;24269;51.894;4.622;2022-10-31T04:20:16;11.40;;;6.20;;
38499;SDS011;24269;51.894;4.622;2022-10-31T04:22:42;9.52;;;5.28;;
38499;SDS011;24269;51.894;4.622;2022-10-31T04:25:08;10.50;;;5.88;;
38499;SDS011;24269;51.894;4.622;2022-10-31T04:27:33;10.93;;;5.30;;
38499;SDS011;24269;51.894;4.622;2022-10-31T04:29:59;11.18;;;5.85;;
38499;SDS011;24269;51.894;4.622;2022-10-31T04:32:25;12.90;;;5.90;;
38499;SDS011;24269;51.894;4.622;2022-10-31T04:34:51;8.88;;;5.30;;
38499;SDS011;24269;51.894;4.622;2022-10-31T04:37:16;10.57;;;5.65;;
38499;SDS011;24269;51.894;4.622;2022-10-31T04:39:42;11.90;;;5.88;;
38499;SDS011;24269;51.894;4.622;2022-10-31T04:42:07;12.90;;;5.95;;
38499;SDS011;24269;51.894;4.622;2022-10-31T04:44:33;11.10;;;6.13;;
38499;SDS011;24269;51.894;4.622;2022-10-31T04:46:59;11.80;;;6.28;;
38499;SDS011;24269;51.894;4.622;2022-10-31T04:49:24;12.57;;;7.18;;
38499;SDS011;24269;51.894;4.622;2022-10-31T04:51:50;14.65;;;8.23;;
38499;SDS011;24269;51.894;4.622;2022-10-31T04:54:15;13.93;;;7.35;;
38499;SDS011;24269;51.894;4.622;2022-10-31T04:56:41;14.63;;;7.72;;
38499;SDS011;24269;51.894;4.622;2022-10-31T04:59:06;16.42;;;7.63;;
38499;SDS011;24269;51.894;4.622;2022-10-31T05:01:32;15.80;;;7.50;;
38499;SDS011;24269;51.894;4.622;2022-10-31T05:03:57;14.85;;;8.00;;
38499;SDS011;24269;51.894;4.622;2022-10-31T05:06:23;15.25;;;7.95;;
38499;SDS011;24269;51.894;4.622;2022-10-31T05:08:49;16.13;;;7.35;;
38499;SDS011;24269;51.894;4.622;2022-10-31T05:11:14;15.32;;;8.60;;
38499;SDS011;24269;51.894;4.622;2022-10-31T05:13:40;15.23;;;8.25;;
38499;SDS011;24269;51.894;4.622;2022-10-31T05:16:05;16.17;;;7.95;;
38499;SDS011;24269;51.894;4.622;2022-10-31T05:18:31;17.92;;;8.25;;
38499;SDS011;24269;51.894;4.622;2022-10-31T05:20:57;15.52;;;8.32;;
38499;SDS011;24269;51.894;4.622;2022-10-31T05:23:22;14.77;;;8.55;;
38499;SDS011;24269;51.894;4.622;2022-10-31T05:25:48;16.88;;;8.40;;
38499;SDS011;24269;51.894;4.622;2022-10-31T05:28:14;14.30;;;7.63;;
38499;SDS011;24269;51.894;4.622;2022-10-31T05:30:40;18.75;;;8.50;;
38499;SDS011;24269;51.894;4.622;2022-10-31T05:33:05;15.32;;;8.15;;
38499;SDS011;24269;51.894;4.622;2022-10-31T05:35:31;14.93;;;8.07;;
38499;SDS011;24269;51.894;4.622;2022-10-31T05:37:57;14.00;;;7.18;;
38499;SDS011;24269;51.894;4.622;2022-10-31T05:40:24;15.98;;;8.05;;
38499;SDS011;24269;51.894;4.622;2022-10-31T05:42:51;14.98;;;8.23;;
38499;SDS011;24269;51.894;4.622;2022-10-31T05:45:18;14.98;;;8.65;;
38499;SDS011;24269;51.894;4.622;2022-10-31T05:47:51;16.55;;;8.50;;
38499;SDS011;24269;51.894;4.622;2022-10-31T05:50:24;14.25;;;8.30;;
38499;SDS011;24269;51.894;4.622;2022-10-31T05:52:58;13.50;;;7.85;;
38499;SDS011;24269;51.894;4.622;2022-10-31T05:55:28;14.93;;;8.10;;
38499;SDS011;24269;51.894;4.622;2022-10-31T05:57:55;17.55;;;9.18;;
38499;SDS011;24269;51.894;4.622;2022-10-31T06:00:21;16.75;;;8.35;;
38499;SDS011;24269;51.894;4.622;2022-10-31T06:02:48;14.25;;;8.00;;
38499;SDS011;24269;51.894;4.622;2022-10-31T06:05:14;16.38;;;9.38;;
38499;SDS011;24269;51.894;4.622;2022-10-31T06:07:41;17.30;;;8.65;;
38499;SDS011;24269;51.894;4.622;2022-10-31T06:10:07;14.18;;;8.70;;
38499;SDS011;24269;51.894;4.622;2022-10-31T06:12:33;14.95;;;8.80;;
38499;SDS011;24269;51.894;4.622;2022-10-31T06:15:03;15.52;;;9.43;;
38499;SDS011;24269;51.894;4.622;2022-10-31T06:17:33;16.23;;;9.30;;
38499;SDS011;24269;51.894;4.622;2022-10-31T06:19:59;15.68;;;9.00;;
38499;SDS011;24269;51.894;4.622;2022-10-31T06:22:25;16.80;;;9.13;;
38499;SDS011;24269;51.894;4.622;2022-10-31T06:24:51;19.50;;;8.57;;
38499;SDS011;24269;51.894;4.622;2022-10-31T06:27:17;16.85;;;8.88;;
38499;SDS011;24269;51.894;4.622;2022-10-31T06:29:42;19.95;;;9.48;;
38499;SDS011;24269;51.894;4.622;2022-10-31T06:32:11;18.67;;;9.02;;
38499;SDS011;24269;51.894;4.622;2022-10-31T06:34:37;16.50;;;9.10;;
38499;SDS011;24269;51.894;4.622;2022-10-31T06:37:05;16.27;;;8.98;;
38499;SDS011;24269;51.894;4.622;2022-10-31T06:39:34;19.23;;;10.20;;
38499;SDS011;24269;51.894;4.622;2022-10-31T06:42:00;19.70;;;9.90;;
38499;SDS011;24269;51.894;4.622;2022-10-31T06:44:26;18.85;;;9.65;;
38499;SDS011;24269;51.894;4.622;2022-10-31T06:46:51;17.90;;;9.50;;
38499;SDS011;24269;51.894;4.622;2022-10-31T06:49:17;18.98;;;9.27;;
38499;SDS011;24269;51.894;4.622;2022-10-31T06:51:46;16.83;;;9.80;;
38499;SDS011;24269;51.894;4.622;2022-10-31T06:54:12;16.98;;;9.60;;
38499;SDS011;24269;51.894;4.622;2022-10-31T06:56:38;24.25;;;10.70;;
38499;SDS011;24269;51.894;4.622;2022-10-31T06:59:04;21.90;;;10.95;;
38499;SDS011;24269;51.894;4.622;2022-10-31T07:01:30;22.30;;;10.98;;
38499;SDS011;24269;51.894;4.622;2022-10-31T07:03:56;23.23;;;11.10;;
38499;SDS011;24269;51.894;4.622;2022-10-31T07:06:21;22.63;;;11.25;;
38499;SDS011;24269;51.894;4.622;2022-10-31T07:08:47;20.70;;;11.40;;
38499;SDS011;24269;51.894;4.622;2022-10-31T07:11:13;23.80;;;12.35;;
38499;SDS011;24269;51.894;4.622;2022-10-31T07:13:39;24.13;;;11.50;;
38499;SDS011;24269;51.894;4.622;2022-10-31T07:16:05;20.25;;;11.50;;
38499;SDS011;24269;51.894;4.622;2022-10-31T07:18:31;19.88;;;11.30;;
38499;SDS011;24269;51.894;4.622;2022-10-31T07:20:57;26.52;;;11.45;;
38499;SDS011;24269;51.894;4.622;2022-10-31T07:23:23;21.52;;;11.45;;
38499;SDS011;24269;51.894;4.622;2022-10-31T07:25:53;22.20;;;12.23;;
38499;SDS011;24269;51.894;4.622;2022-10-31T07:28:23;22.23;;;11.07;;
38499;SDS011;24269;51.894;4.622;2022-10-31T07:30:50;26.13;;;11.90;;
38499;SDS011;24269;51.894;4.622;2022-10-31T07:33:19;25.00;;;11.98;;
38499;SDS011;24269;51.894;4.622;2022-10-31T07:35:46;21.85;;;12.07;;
38499;SDS011;24269;51.894;4.622;2022-10-31T07:38:12;23.80;;;11.75;;
38499;SDS011;24269;51.894;4.622;2022-10-31T07:40:39;24.17;;;12.30;;
38499;SDS011;24269;51.894;4.622;2022-10-31T07:43:05;21.50;;;11.70;;
38499;SDS011;24269;51.894;4.622;2022-10-31T07:45:31;23.55;;;12.27;;
38499;SDS011;24269;51.894;4.622;2022-10-31T07:50:30;21.83;;;11.77;;
38499;SDS011;24269;51.894;4.622;2022-10-31T07:55:28;24.20;;;11.40;;
38499;SDS011;24269;51.894;4.622;2022-10-31T07:58:05;25.15;;;11.82;;
38499;SDS011;24269;51.894;4.622;2022-10-31T08:00:35;27.77;;;12.80;;
38499;SDS011;24269;51.894;4.622;2022-10-31T08:03:06;34.47;;;14.93;;
38499;SDS011;24269;51.894;4.622;2022-10-31T08:05:36;35.30;;;14.02;;
38499;SDS011;24269;51.894;4.622;2022-10-31T08:08:03;30.55;;;14.18;;
38499;SDS011;24269;51.894;4.622;2022-10-31T08:10:29;28.55;;;13.38;;
38499;SDS011;24269;51.894;4.622;2022-10-31T08:12:57;24.65;;;12.98;;
38499;SDS011;24269;51.894;4.622;2022-10-31T08:15:24;25.33;;;12.23;;
38499;SDS011;24269;51.894;4.622;2022-10-31T08:17:51;24.52;;;12.88;;
38499;SDS011;24269;51.894;4.622;2022-10-31T08:20:16;25.40;;;13.18;;
38499;SDS011;24269;51.894;4.622;2022-10-31T08:22:42;24.23;;;12.85;;
38499;SDS011;24269;51.894;4.622;2022-10-31T08:25:08;26.25;;;13.18;;
38499;SDS011;24269;51.894;4.622;2022-10-31T08:27:34;22.05;;;12.07;;
38499;SDS011;24269;51.894;4.622;2022-10-31T08:30:00;22.27;;;11.60;;
38499;SDS011;24269;51.894;4.622;2022-10-31T08:32:27;19.85;;;11.73;;
38499;SDS011;24269;51.894;4.622;2022-10-31T08:34:53;21.73;;;11.55;;
38499;SDS011;24269;51.894;4.622;2022-10-31T08:37:19;23.55;;;12.20;;
38499;SDS011;24269;51.894;4.622;2022-10-31T08:39:47;20.55;;;10.90;;
38499;SDS011;24269;51.894;4.622;2022-10-31T08:42:13;22.38;;;12.02;;
38499;SDS011;24269;51.894;4.622;2022-10-31T08:44:39;27.67;;;12.35;;
38499;SDS011;24269;51.894;4.622;2022-10-31T08:47:05;22.95;;;12.40;;
38499;SDS011;24269;51.894;4.622;2022-10-31T08:49:30;25.10;;;12.60;;
38499;SDS011;24269;51.894;4.622;2022-10-31T08:51:56;28.58;;;12.90;;
38499;SDS011;24269;51.894;4.622;2022-10-31T08:54:22;25.83;;;12.32;;
38499;SDS011;24269;51.894;4.622;2022-10-31T08:56:47;26.00;;;12.45;;
38499;SDS011;24269;51.894;4.622;2022-10-31T08:59:18;28.83;;;12.93;;
38499;SDS011;24269;51.894;4.622;2022-10-31T09:01:44;28.50;;;13.10;;
38499;SDS011;24269;51.894;4.622;2022-10-31T09:04:10;26.67;;;12.27;;
38499;SDS011;24269;51.894;4.622;2022-10-31T09:06:35;25.33;;;12.13;;
38499;SDS011;24269;51.894;4.622;2022-10-31T09:09:01;25.90;;;13.15;;
38499;SDS011;24269;51.894;4.622;2022-10-31T09:11:27;25.55;;;12.82;;
38499;SDS011;24269;51.894;4.622;2022-10-31T09:13:55;26.05;;;12.90;;
38499;SDS011;24269;51.894;4.622;2022-10-31T09:16:20;24.52;;;12.70;;
38499;SDS011;24269;51.894;4.622;2022-10-31T09:18:46;25.50;;;12.20;;
38499;SDS011;24269;51.894;4.622;2022-10-31T09:21:12;26.90;;;13.23;;
38499;SDS011;24269;51.894;4.622;2022-10-31T09:23:38;24.45;;;11.93;;
38499;SDS011;24269;51.894;4.622;2022-10-31T09:26:04;29.77;;;12.48;;
38499;SDS011;24269;51.894;4.622;2022-10-31T09:28:30;22.08;;;12.38;;
38499;SDS011;24269;51.894;4.622;2022-10-31T09:30:57;25.33;;;12.23;;
38499;SDS011;24269;51.894;4.622;2022-10-31T09:33:23;21.88;;;10.93;;
38499;SDS011;24269;51.894;4.622;2022-10-31T09:35:49;22.95;;;12.07;;
38499;SDS011;24269;51.894;4.622;2022-10-31T09:38:16;24.27;;;12.13;;
38499;SDS011;24269;51.894;4.622;2022-10-31T09:40:46;23.73;;;12.47;;
38499;SDS011;24269;51.894;4.622;2022-10-31T09:49:31;22.33;;;11.85;;
38499;SDS011;24269;51.894;4.622;2022-10-31T09:52:14;21.95;;;12.48;;
38499;SDS011;24269;51.894;4.622;2022-10-31T09:55:38;25.10;;;12.18;;
38499;SDS011;24269;51.894;4.622;2022-10-31T09:58:14;23.17;;;12.38;;
38499;SDS011;24269;51.894;4.622;2022-10-31T10:00:43;22.55;;;10.82;;
38499;SDS011;24269;51.894;4.622;2022-10-31T10:03:15;22.23;;;11.25;;
38499;SDS011;24269;51.894;4.622;2022-10-31T10:05:53;21.90;;;11.63;;
38499;SDS011;24269;51.894;4.622;2022-10-31T10:08:26;22.30;;;11.23;;
38499;SDS011;24269;51.894;4.622;2022-10-31T10:11:30;19.88;;;11.02;;
38499;SDS011;24269;51.894;4.622;2022-10-31T10:14:12;20.17;;;10.63;;
38499;SDS011;24269;51.894;4.622;2022-10-31T10:25:47;20.08;;;11.18;;
38499;SDS011;24269;51.894;4.622;2022-10-31T10:28:23;20.80;;;10.68;;
38499;SDS011;24269;51.894;4.622;2022-10-31T10:30:59;19.20;;;11.15;;
38499;SDS011;24269;51.894;4.622;2022-10-31T10:33:30;24.58;;;11.23;;
38499;SDS011;24269;51.894;4.622;2022-10-31T10:36:04;17.50;;;10.48;;
38499;SDS011;24269;51.894;4.622;2022-10-31T10:38:51;18.23;;;9.48;;
38499;SDS011;24269;51.894;4.622;2022-10-31T10:41:22;19.15;;;9.75;;
38499;SDS011;24269;51.894;4.622;2022-10-31T10:43:49;16.40;;;9.73;;
38499;SDS011;24269;51.894;4.622;2022-10-31T10:59:43;16.73;;;9.82;;
38499;SDS011;24269;51.894;4.622;2022-10-31T11:03:33;22.67;;;10.93;;
38499;SDS011;24269;51.894;4.622;2022-10-31T11:06:00;19.48;;;10.02;;
38499;SDS011;24269;51.894;4.622;2022-10-31T11:08:27;18.33;;;10.02;;
38499;SDS011;24269;51.894;4.622;2022-10-31T11:11:04;18.40;;;9.63;;
38499;SDS011;24269;51.894;4.622;2022-10-31T11:16:07;20.00;;;9.63;;
38499;SDS011;24269;51.894;4.622;2022-10-31T11:18:45;20.48;;;9.90;;
38499;SDS011;24269;51.894;4.622;2022-10-31T11:23:47;19.98;;;10.43;;
38499;SDS011;24269;51.894;4.622;2022-10-31T11:26:19;19.20;;;10.10;;
38499;SDS011;24269;51.894;4.622;2022-10-31T11:28:55;19.23;;;10.52;;
38499;SDS011;24269;51.894;4.622;2022-10-31T11:31:24;19.90;;;10.13;;
38499;SDS011;24269;51.894;4.622;2022-10-31T11:34:01;18.00;;;10.30;;
38499;SDS011;24269;51.894;4.622;2022-10-31T11:36:30;19.90;;;10.48;;
38499;SDS011;24269;51.894;4.622;2022-10-31T11:38:59;20.92;;;10.50;;
38499;SDS011;24269;51.894;4.622;2022-10-31T11:41:33;21.50;;;11.38;;
38499;SDS011;24269;51.894;4.622;2022-10-31T11:46:50;19.00;;;10.68;;
38499;SDS011;24269;51.894;4.622;2022-10-31T11:49:20;20.92;;;11.23;;
38499;SDS011;24269;51.894;4.622;2022-10-31T11:52:06;21.27;;;11.32;;
38499;SDS011;24269;51.894;4.622;2022-10-31T11:57:21;21.67;;;11.18;;
38499;SDS011;24269;51.894;4.622;2022-10-31T12:00:29;20.55;;;10.57;;
38499;SDS011;24269;51.894;4.622;2022-10-31T12:05:59;20.95;;;10.85;;
38499;SDS011;24269;51.894;4.622;2022-10-31T12:08:37;26.27;;;12.40;;
38499;SDS011;24269;51.894;4.622;2022-10-31T12:17:24;23.15;;;11.35;;
38499;SDS011;24269;51.894;4.622;2022-10-31T12:32:20;28.85;;;14.32;;
38499;SDS011;24269;51.894;4.622;2022-10-31T12:34:44;27.30;;;13.50;;
38499;SDS011;24269;51.894;4.622;2022-10-31T12:37:40;28.58;;;13.85;;
38499;SDS011;24269;51.894;4.622;2022-10-31T12:43:44;27.27;;;12.25;;
38499;SDS011;24269;51.894;4.622;2022-10-31T12:58:19;25.52;;;13.32;;
38499;SDS011;24269;51.894;4.622;2022-10-31T13:00:47;27.83;;;12.90;;
38499;SDS011;24269;51.894;4.622;2022-10-31T13:03:27;31.75;;;14.60;;
38499;SDS011;24269;51.894;4.622;2022-10-31T13:11:15;28.23;;;14.02;;
38499;SDS011;24269;51.894;4.622;2022-10-31T13:14:05;31.38;;;15.15;;
38499;SDS011;24269;51.894;4.622;2022-10-31T13:16:37;31.75;;;15.15;;
38499;SDS011;24269;51.894;4.622;2022-10-31T13:19:26;34.85;;;15.60;;
38499;SDS011;24269;51.894;4.622;2022-10-31T13:22:17;28.10;;;14.20;;
38499;SDS011;24269;51.894;4.622;2022-10-31T13:27:45;27.70;;;15.23;;
38499;SDS011;24269;51.894;4.622;2022-10-31T13:30:33;28.02;;;15.38;;
38499;SDS011;24269;51.894;4.622;2022-10-31T13:33:14;24.77;;;12.52;;
38499;SDS011;24269;51.894;4.622;2022-10-31T13:38:59;23.90;;;12.55;;
38499;SDS011;24269;51.894;4.622;2022-10-31T13:41:42;28.05;;;14.38;;
38499;SDS011;24269;51.894;4.622;2022-10-31T13:44:17;27.92;;;15.40;;
38499;SDS011;24269;51.894;4.622;2022-10-31T13:46:49;34.30;;;15.55;;
38499;SDS011;24269;51.894;4.622;2022-10-31T13:54:35;32.13;;;16.42;;
38499;SDS011;24269;51.894;4.622;2022-10-31T13:57:30;32.03;;;17.63;;
38499;SDS011;24269;51.894;4.622;2022-10-31T14:00:00;33.80;;;17.58;;
38499;SDS011;24269;51.894;4.622;2022-10-31T14:02:31;35.50;;;17.85;;
38499;SDS011;24269;51.894;4.622;2022-10-31T14:05:22;31.95;;;16.17;;
38499;SDS011;24269;51.894;4.622;2022-10-31T14:07:45;38.40;;;18.65;;
38499;SDS011;24269;51.894;4.622;2022-10-31T14:15:56;31.45;;;14.57;;
38499;SDS011;24269;51.894;4.622;2022-10-31T14:18:36;30.07;;;14.53;;
38499;SDS011;24269;51.894;4.622;2022-10-31T14:21:14;28.55;;;14.23;;
38499;SDS011;24269;51.894;4.622;2022-10-31T14:23:40;31.00;;;15.30;;
38499;SDS011;24269;51.894;4.622;2022-10-31T14:28:52;33.53;;;15.82;;
38499;SDS011;24269;51.894;4.622;2022-10-31T14:31:34;30.73;;;15.18;;
38499;SDS011;24269;51.894;4.622;2022-10-31T14:34:04;29.13;;;14.75;;
38499;SDS011;24269;51.894;4.622;2022-10-31T14:55:51;33.10;;;17.85;;
38499;SDS011;24269;51.894;4.622;2022-10-31T14:58:24;34.78;;;17.48;;
38499;SDS011;24269;51.894;4.622;2022-10-31T15:01:18;36.30;;;17.67;;
38499;SDS011;24269;51.894;4.622;2022-10-31T15:03:49;38.03;;;19.13;;
38499;SDS011;24269;51.894;4.622;2022-10-31T15:06:18;31.55;;;17.02;;
38499;SDS011;24269;51.894;4.622;2022-10-31T15:11:21;31.92;;;18.17;;
38499;SDS011;24269;51.894;4.622;2022-10-31T15:13:54;38.13;;;19.13;;
38499;SDS011;24269;51.894;4.622;2022-10-31T15:19:10;36.80;;;17.88;;
38499;SDS011;24269;51.894;4.622;2022-10-31T15:21:42;36.30;;;17.42;;
38499;SDS011;24269;51.894;4.622;2022-10-31T15:26:52;38.77;;;17.97;;
38499;SDS011;24269;51.894;4.622;2022-10-31T15:29:20;34.38;;;18.13;;
38499;SDS011;24269;51.894;4.622;2022-10-31T15:34:51;34.53;;;18.02;;
38499;SDS011;24269;51.894;4.622;2022-10-31T15:37:20;40.97;;;18.83;;
38499;SDS011;24269;51.894;4.622;2022-10-31T15:39:49;36.05;;;18.42;;
38499;SDS011;24269;51.894;4.622;2022-10-31T15:42:34;37.85;;;18.20;;
38499;SDS011;24269;51.894;4.622;2022-10-31T15:45:27;38.08;;;19.05;;
38499;SDS011;24269;51.894;4.622;2022-10-31T15:47:54;34.80;;;17.02;;
38499;SDS011;24269;51.894;4.622;2022-10-31T15:52:51;35.83;;;18.73;;
38499;SDS011;24269;51.894;4.622;2022-10-31T15:55:29;34.70;;;18.55;;
38499;SDS011;24269;51.894;4.622;2022-10-31T15:57:58;35.03;;;16.65;;
38499;SDS011;24269;51.894;4.622;2022-10-31T16:00:33;34.50;;;17.80;;
38499;SDS011;24269;51.894;4.622;2022-10-31T16:03:02;31.73;;;16.92;;
38499;SDS011;24269;51.894;4.622;2022-10-31T16:05:32;34.50;;;17.35;;
38499;SDS011;24269;51.894;4.622;2022-10-31T16:08:00;35.67;;;17.52;;
38499;SDS011;24269;51.894;4.622;2022-10-31T16:10:26;33.85;;;18.02;;
38499;SDS011;24269;51.894;4.622;2022-10-31T16:12:52;36.20;;;17.33;;
38499;SDS011;24269;51.894;4.622;2022-10-31T16:15:19;29.65;;;16.58;;
38499;SDS011;24269;51.894;4.622;2022-10-31T16:17:49;31.25;;;17.60;;
38499;SDS011;24269;51.894;4.622;2022-10-31T16:20:26;33.50;;;17.05;;
38499;SDS011;24269;51.894;4.622;2022-10-31T16:22:54;28.52;;;14.07;;
38499;SDS011;24269;51.894;4.622;2022-10-31T16:25:25;28.08;;;13.88;;
38499;SDS011;24269;51.894;4.622;2022-10-31T16:28:02;32.78;;;16.42;;
38499;SDS011;24269;51.894;4.622;2022-10-31T16:33:26;32.40;;;17.88;;
38499;SDS011;24269;51.894;4.622;2022-10-31T16:35:53;27.60;;;13.68;;
38499;SDS011;24269;51.894;4.622;2022-10-31T16:38:20;27.48;;;13.85;;
38499;SDS011;24269;51.894;4.622;2022-10-31T16:40:45;30.60;;;14.18;;
38499;SDS011;24269;51.894;4.622;2022-10-31T16:43:12;25.13;;;12.55;;
38499;SDS011;24269;51.894;4.622;2022-10-31T16:45:46;26.50;;;12.93;;
38499;SDS011;24269;51.894;4.622;2022-10-31T16:48:14;27.42;;;13.65;;
38499;SDS011;24269;51.894;4.622;2022-10-31T16:50:42;25.40;;;12.20;;
38499;SDS011;24269;51.894;4.622;2022-10-31T16:53:08;25.20;;;12.00;;
38499;SDS011;24269;51.894;4.622;2022-10-31T16:55:40;26.42;;;13.20;;
38499;SDS011;24269;51.894;4.622;2022-10-31T16:58:09;26.98;;;13.05;;
38499;SDS011;24269;51.894;4.622;2022-10-31T17:00:40;25.13;;;12.27;;
38499;SDS011;24269;51.894;4.622;2022-10-31T17:03:07;22.55;;;12.73;;
38499;SDS011;24269;51.894;4.622;2022-10-31T17:05:33;23.80;;;12.32;;
38499;SDS011;24269;51.894;4.622;2022-10-31T17:07:59;21.33;;;10.93;;
38499;SDS011;24269;51.894;4.622;2022-10-31T17:10:25;20.80;;;11.43;;
38499;SDS011;24269;51.894;4.622;2022-10-31T17:12:51;23.15;;;11.00;;
38499;SDS011;24269;51.894;4.622;2022-10-31T17:15:22;21.15;;;11.32;;
38499;SDS011;24269;51.894;4.622;2022-10-31T17:20:20;24.35;;;10.90;;
38499;SDS011;24269;51.894;4.622;2022-10-31T17:22:50;22.92;;;11.38;;
38499;SDS011;24269;51.894;4.622;2022-10-31T17:25:19;26.08;;;11.57;;
38499;SDS011;24269;51.894;4.622;2022-10-31T17:27:48;19.23;;;10.50;;
38499;SDS011;24269;51.894;4.622;2022-10-31T17:30:15;23.20;;;11.27;;
38499;SDS011;24269;51.894;4.622;2022-10-31T17:32:42;25.13;;;10.38;;
38499;SDS011;24269;51.894;4.622;2022-10-31T17:35:09;21.90;;;11.20;;
38499;SDS011;24269;51.894;4.622;2022-10-31T17:37:35;20.63;;;10.65;;
38499;SDS011;24269;51.894;4.622;2022-10-31T17:40:01;20.48;;;10.60;;
38499;SDS011;24269;51.894;4.622;2022-10-31T17:42:27;23.92;;;11.13;;
38499;SDS011;24269;51.894;4.622;2022-10-31T17:44:52;22.00;;;11.00;;